createdAt,value
2022-12-31T00:00:39.103Z,14.43
2022-12-31T00:03:41.649Z,14.39
2022-12-31T00:06:43.221Z,14.36
2022-12-31T00:09:44.779Z,14.45
2022-12-31T00:12:46.295Z,14.62
2022-12-31T00:15:47.806Z,14.64
2022-12-31T00:18:53.215Z,14.67
2022-12-31T00:21:54.881Z,14.74
2022-12-31T00:24:56.403Z,14.72
2022-12-31T00:27:57.892Z,14.89
2022-12-31T00:31:08.725Z,14.98
2022-12-31T00:34:10.313Z,15.04
2022-12-31T00:37:11.928Z,15.06
2022-12-31T00:40:14.238Z,14.99
2022-12-31T00:43:15.761Z,15.17
2022-12-31T00:46:17.752Z,15.04
2022-12-31T00:49:19.507Z,15.13
2022-12-31T00:52:21.089Z,15.11
2022-12-31T00:55:22.614Z,15.26
2022-12-31T00:58:24.787Z,15.26
2022-12-31T01:01:35.989Z,15.27
2022-12-31T01:04:37.742Z,15.37
2022-12-31T01:07:39.305Z,15.30
2022-12-31T01:10:59.553Z,15.32
2022-12-31T01:14:17.457Z,15.44
2022-12-31T01:17:19.113Z,15.39
2022-12-31T01:20:20.608Z,15.30
2022-12-31T01:23:22.148Z,15.33
2022-12-31T01:26:23.719Z,15.18
2022-12-31T01:29:25.276Z,15.29
2022-12-31T01:32:26.866Z,15.32
2022-12-31T01:35:28.383Z,15.31
2022-12-31T01:38:29.959Z,15.26
2022-12-31T01:41:44.761Z,15.21
2022-12-31T01:44:50.907Z,15.34
2022-12-31T01:47:57.207Z,15.39
2022-12-31T01:50:59.018Z,15.58
2022-12-31T01:54:04.250Z,15.49
2022-12-31T01:57:08.088Z,15.37
2022-12-31T02:00:10.347Z,15.39
2022-12-31T02:03:13.296Z,15.38
2022-12-31T02:06:21.893Z,15.29
2022-12-31T02:09:23.815Z,15.34
2022-12-31T02:12:25.528Z,15.25
2022-12-31T02:15:58.484Z,15.19
2022-12-31T02:19:21.518Z,15.29
2022-12-31T02:22:47.956Z,15.36
2022-12-31T02:26:00.058Z,15.33
2022-12-31T02:29:33.132Z,15.25
2022-12-31T02:33:00.775Z,15.29
2022-12-31T02:36:15.912Z,15.38
2022-12-31T02:39:17.497Z,15.36
2022-12-31T02:42:18.998Z,15.38
2022-12-31T02:45:31.239Z,15.48
2022-12-31T02:48:37.867Z,15.75
2022-12-31T02:51:47.546Z,15.68
2022-12-31T02:54:55.968Z,15.71
2022-12-31T02:58:13.178Z,15.61
2022-12-31T03:01:39.012Z,15.76
2022-12-31T03:04:44.129Z,15.75
2022-12-31T03:07:46.309Z,15.55
2022-12-31T03:10:47.880Z,15.58
2022-12-31T03:13:49.441Z,15.49
2022-12-31T03:16:51.257Z,15.49
2022-12-31T03:20:11.587Z,15.49
2022-12-31T03:23:15.350Z,15.42
2022-12-31T03:26:16.946Z,15.48
2022-12-31T03:29:18.481Z,15.32
2022-12-31T03:32:20.104Z,15.38
2022-12-31T03:35:23.548Z,15.47
2022-12-31T03:38:25.211Z,15.40
2022-12-31T03:41:26.781Z,15.59
2022-12-31T03:44:28.353Z,15.47
2022-12-31T03:47:30.111Z,15.42
2022-12-31T03:50:31.677Z,15.51
2022-12-31T03:53:34.804Z,15.40
2022-12-31T03:56:36.392Z,15.37
2022-12-31T03:59:38.156Z,15.39
2022-12-31T04:02:40.139Z,15.44
2022-12-31T04:05:41.763Z,15.47
2022-12-31T04:08:43.334Z,15.43
2022-12-31T04:11:44.849Z,15.41
2022-12-31T04:14:46.348Z,15.30
2022-12-31T04:17:48.349Z,15.16
2022-12-31T04:20:49.891Z,15.13
2022-12-31T04:23:51.451Z,15.05
2022-12-31T04:26:52.996Z,15.04
2022-12-31T04:29:54.479Z,14.97
2022-12-31T04:32:56.105Z,15.03
2022-12-31T04:36:05.405Z,15.17
2022-12-31T04:39:06.969Z,15.21
2022-12-31T04:42:08.512Z,15.30
2022-12-31T04:45:10.346Z,15.36
2022-12-31T04:48:11.879Z,15.33
2022-12-31T04:51:14.171Z,15.42
2022-12-31T04:54:15.678Z,15.42
2022-12-31T04:57:17.213Z,15.54
2022-12-31T05:00:18.803Z,15.51
2022-12-31T05:03:21.806Z,15.64
2022-12-31T05:06:23.774Z,15.70
2022-12-31T05:09:27.469Z,15.68
2022-12-31T05:12:29.000Z,15.62
2022-12-31T05:15:30.516Z,15.77
2022-12-31T05:18:33.698Z,15.83
2022-12-31T05:21:36.046Z,15.87
2022-12-31T05:24:37.603Z,15.80
2022-12-31T05:27:39.116Z,15.76
2022-12-31T05:30:41.485Z,15.80
2022-12-31T05:33:43.066Z,15.69
2022-12-31T05:36:44.625Z,15.67
2022-12-31T05:39:46.148Z,15.56
2022-12-31T05:42:47.732Z,15.73
2022-12-31T05:45:50.392Z,15.66
2022-12-31T05:48:51.957Z,15.79
2022-12-31T05:51:53.539Z,15.67
2022-12-31T05:54:55.113Z,15.68
2022-12-31T05:57:56.652Z,15.77
2022-12-31T06:00:58.247Z,15.77
2022-12-31T06:04:00.505Z,15.79
2022-12-31T06:07:02.094Z,15.74
2022-12-31T06:10:04.446Z,15.79
2022-12-31T06:13:06.155Z,15.84
2022-12-31T06:16:10.812Z,15.72
2022-12-31T06:19:12.340Z,15.93
2022-12-31T06:22:14.099Z,15.88
2022-12-31T06:25:15.721Z,15.87
2022-12-31T06:28:20.434Z,15.87
2022-12-31T06:31:22.651Z,16.00
2022-12-31T06:34:24.278Z,15.86
2022-12-31T06:37:25.802Z,15.81
2022-12-31T06:40:27.331Z,15.87
2022-12-31T06:43:28.852Z,15.91
2022-12-31T06:46:30.427Z,15.88
2022-12-31T06:49:32.789Z,15.94
2022-12-31T06:52:34.286Z,15.91
2022-12-31T06:55:36.184Z,15.93
2022-12-31T06:58:38.097Z,15.69
2022-12-31T07:01:59.525Z,15.96
2022-12-31T07:05:28.492Z,15.88
2022-12-31T07:08:37.827Z,16.09
2022-12-31T07:11:51.972Z,16.20
2022-12-31T07:14:59.228Z,16.05
2022-12-31T07:18:10.340Z,16.03
2022-12-31T07:21:15.593Z,16.12
2022-12-31T07:24:17.508Z,16.21
2022-12-31T07:27:38.635Z,16.15
2022-12-31T07:30:52.230Z,16.18
2022-12-31T07:33:58.904Z,16.15
2022-12-31T07:37:10.068Z,16.27
2022-12-31T07:40:29.682Z,16.31
2022-12-31T07:43:37.182Z,16.28
2022-12-31T07:46:56.726Z,16.33
2022-12-31T07:49:58.728Z,16.37
2022-12-31T07:53:00.580Z,16.43
2022-12-31T07:56:04.312Z,16.65
2022-12-31T07:59:43.538Z,16.46
2022-12-31T08:03:15.044Z,16.54
2022-12-31T08:06:27.971Z,16.61
2022-12-31T08:09:49.646Z,16.64
2022-12-31T08:13:02.286Z,16.63
2022-12-31T08:16:04.112Z,16.71
2022-12-31T08:19:06.059Z,16.60
2022-12-31T08:22:26.334Z,16.60
2022-12-31T08:25:33.395Z,16.60
2022-12-31T08:28:47.072Z,16.70
2022-12-31T08:32:03.294Z,16.54
2022-12-31T08:35:27.968Z,16.67
2022-12-31T08:38:44.044Z,16.74
2022-12-31T08:41:49.407Z,16.70
2022-12-31T08:45:05.448Z,16.79
2022-12-31T08:48:20.002Z,16.72
2022-12-31T08:51:24.125Z,16.68
2022-12-31T08:54:26.232Z,16.75
2022-12-31T08:57:39.537Z,16.76
2022-12-31T09:00:41.968Z,16.83
2022-12-31T09:04:10.393Z,16.78
2022-12-31T09:07:13.991Z,16.86
2022-12-31T09:10:27.419Z,16.94
2022-12-31T09:13:59.405Z,16.86
2022-12-31T09:17:38.506Z,16.96
2022-12-31T09:20:43.262Z,17.03
2022-12-31T09:23:45.989Z,17.06
2022-12-31T09:27:04.705Z,17.35
2022-12-31T09:30:12.908Z,17.39
2022-12-31T09:33:42.518Z,17.40
2022-12-31T09:36:51.468Z,17.32
2022-12-31T09:39:57.172Z,17.47
2022-12-31T09:43:20.548Z,17.60
2022-12-31T09:47:01.168Z,17.60
2022-12-31T09:50:37.651Z,17.78
2022-12-31T09:53:48.301Z,17.78
2022-12-31T09:57:11.677Z,17.79
2022-12-31T10:00:22.503Z,17.82
2022-12-31T10:03:43.276Z,17.82
2022-12-31T10:07:00.010Z,17.91
2022-12-31T10:10:10.793Z,17.88
2022-12-31T10:13:33.019Z,18.01
2022-12-31T10:17:01.733Z,18.05
2022-12-31T10:20:21.559Z,18.17
2022-12-31T10:23:48.047Z,18.24
2022-12-31T10:27:01.612Z,18.19
2022-12-31T10:30:17.334Z,18.26
2022-12-31T10:33:33.699Z,18.30
2022-12-31T10:36:52.913Z,18.38
2022-12-31T10:40:15.845Z,18.44
2022-12-31T10:43:38.537Z,18.41
2022-12-31T10:50:48.667Z,18.51
2022-12-31T10:54:12.776Z,18.59
2022-12-31T10:57:43.023Z,18.53
2022-12-31T11:00:56.875Z,18.59
2022-12-31T11:04:32.474Z,18.70
2022-12-31T11:08:11.180Z,18.71
2022-12-31T11:11:45.471Z,18.97
2022-12-31T11:15:05.312Z,19.13
2022-12-31T11:18:31.194Z,19.11
2022-12-31T11:21:59.772Z,19.20
2022-12-31T11:25:35.768Z,19.04
2022-12-31T11:29:14.119Z,19.18
2022-12-31T11:32:24.024Z,19.14
2022-12-31T11:36:04.115Z,19.20
2022-12-31T11:39:27.316Z,19.17
2022-12-31T11:43:21.039Z,19.20
2022-12-31T11:46:48.856Z,19.24
2022-12-31T11:50:09.156Z,19.31
2022-12-31T11:53:47.983Z,19.20
2022-12-31T11:57:23.546Z,19.25
2022-12-31T12:00:26.748Z,19.27
2022-12-31T12:03:28.453Z,19.33
2022-12-31T12:06:33.133Z,19.28
2022-12-31T12:09:35.303Z,19.40
2022-12-31T12:12:41.326Z,19.35
2022-12-31T12:15:45.754Z,19.20
2022-12-31T12:18:51.536Z,19.10
2022-12-31T12:21:54.004Z,18.94
2022-12-31T12:25:04.771Z,19.00
2022-12-31T12:28:19.773Z,18.97
2022-12-31T12:31:23.984Z,18.88
2022-12-31T12:34:29.701Z,18.93
2022-12-31T12:37:34.393Z,18.88
2022-12-31T12:40:35.992Z,18.82
2022-12-31T12:43:38.560Z,18.77
2022-12-31T12:46:52.796Z,18.83
2022-12-31T12:49:55.047Z,18.84
2022-12-31T12:53:18.459Z,18.84
2022-12-31T12:56:35.363Z,18.83
2022-12-31T12:59:55.637Z,18.86
2022-12-31T13:03:27.533Z,18.78
2022-12-31T13:06:46.443Z,18.77
2022-12-31T13:10:16.483Z,18.69
2022-12-31T13:13:25.263Z,18.74
2022-12-31T13:16:33.302Z,18.75
2022-12-31T13:19:50.668Z,18.76
2022-12-31T13:23:20.044Z,18.79
2022-12-31T13:26:29.427Z,18.78
2022-12-31T13:29:35.014Z,18.80
2022-12-31T13:32:40.694Z,18.89
2022-12-31T13:35:51.277Z,18.79
2022-12-31T13:38:56.816Z,18.86
2022-12-31T13:42:21.679Z,18.85
2022-12-31T13:45:31.955Z,18.83
2022-12-31T13:48:47.711Z,19.05
2022-12-31T13:52:03.754Z,18.96
2022-12-31T13:55:27.595Z,18.90
2022-12-31T13:58:50.221Z,18.88
2022-12-31T14:02:01.312Z,18.74
2022-12-31T14:05:16.470Z,18.97
2022-12-31T14:08:18.085Z,18.98
2022-12-31T14:11:47.988Z,18.97
2022-12-31T14:15:21.784Z,19.03
2022-12-31T14:18:35.897Z,18.91
2022-12-31T14:21:50.278Z,18.92
2022-12-31T14:24:52.480Z,18.99
2022-12-31T14:27:56.514Z,18.96
2022-12-31T14:31:13.709Z,18.92
2022-12-31T14:34:40.967Z,19.10
2022-12-31T14:37:56.819Z,19.06
2022-12-31T14:41:17.208Z,19.10
2022-12-31T14:44:37.626Z,18.96
2022-12-31T14:47:57.907Z,19.02
2022-12-31T14:51:02.567Z,18.85
2022-12-31T14:54:05.026Z,19.07
2022-12-31T14:57:24.541Z,19.06
2022-12-31T15:00:26.697Z,19.05
2022-12-31T15:03:30.990Z,19.07
2022-12-31T15:06:47.382Z,18.97
2022-12-31T15:09:48.907Z,19.09
2022-12-31T15:13:06.404Z,19.02
2022-12-31T15:16:19.957Z,19.09
2022-12-31T15:19:58.580Z,19.05
2022-12-31T15:23:01.320Z,19.03
2022-12-31T15:26:04.162Z,19.15
2022-12-31T15:29:19.383Z,19.00
2022-12-31T15:32:30.105Z,18.95
2022-12-31T15:35:48.502Z,18.97
2022-12-31T15:39:03.068Z,19.08
2022-12-31T15:42:37.968Z,18.94
2022-12-31T15:45:42.879Z,19.00
2022-12-31T15:49:01.973Z,19.04
2022-12-31T15:52:30.342Z,19.12
2022-12-31T15:55:49.414Z,19.12
2022-12-31T15:58:56.748Z,18.92
2022-12-31T16:01:58.951Z,18.91
2022-12-31T16:05:00.965Z,18.67
2022-12-31T16:08:02.759Z,18.75
2022-12-31T16:11:07.155Z,18.82
2022-12-31T16:14:19.788Z,18.91
2022-12-31T16:17:33.503Z,18.89
2022-12-31T16:20:41.901Z,18.69
2022-12-31T16:23:53.143Z,18.54
2022-12-31T16:26:58.708Z,18.49
2022-12-31T16:30:07.167Z,18.66
2022-12-31T16:33:14.735Z,18.82
2022-12-31T16:36:25.106Z,18.64
2022-12-31T16:39:28.726Z,18.79
2022-12-31T16:42:30.713Z,18.70
2022-12-31T16:45:36.950Z,18.81
2022-12-31T16:48:39.070Z,18.68
2022-12-31T16:51:41.357Z,18.67
2022-12-31T16:54:47.835Z,18.55
2022-12-31T16:57:58.223Z,18.61
2022-12-31T17:01:18.099Z,18.56
2022-12-31T17:04:21.733Z,18.55
2022-12-31T17:07:32.533Z,18.52
2022-12-31T17:10:36.438Z,18.38
2022-12-31T17:13:38.175Z,18.35
2022-12-31T17:17:08.785Z,18.61
2022-12-31T17:20:21.841Z,18.53
2022-12-31T17:23:33.718Z,18.44
2022-12-31T17:26:37.944Z,18.37
2022-12-31T17:29:39.476Z,18.48
2022-12-31T17:32:42.737Z,18.29
2022-12-31T17:35:45.299Z,18.27
2022-12-31T17:38:46.834Z,17.95
2022-12-31T17:41:52.743Z,18.09
2022-12-31T17:44:58.739Z,18.32
2022-12-31T17:48:03.028Z,18.15
2022-12-31T17:51:04.919Z,18.02
2022-12-31T17:54:17.916Z,18.20
2022-12-31T17:57:28.639Z,18.21
2022-12-31T18:00:33.266Z,18.21
2022-12-31T18:03:35.352Z,18.31
2022-12-31T18:06:47.751Z,18.34
2022-12-31T18:09:49.443Z,18.16
2022-12-31T18:12:51.750Z,18.24
2022-12-31T18:15:54.375Z,18.36
2022-12-31T18:18:58.820Z,18.30
2022-12-31T18:22:00.797Z,18.30
2022-12-31T18:25:02.825Z,18.35
2022-12-31T18:28:08.852Z,18.39
2022-12-31T18:31:14.845Z,18.31
2022-12-31T18:34:17.935Z,18.26
2022-12-31T18:37:22.280Z,18.23
2022-12-31T18:40:24.366Z,18.27
2022-12-31T18:43:25.937Z,18.30
2022-12-31T18:46:28.161Z,18.21
2022-12-31T18:49:30.275Z,18.26
2022-12-31T18:52:32.030Z,18.18
2022-12-31T18:55:40.430Z,18.27
2022-12-31T18:58:42.571Z,18.18
2022-12-31T19:01:44.412Z,18.10
2022-12-31T19:04:46.911Z,18.03
2022-12-31T19:07:48.511Z,18.08
2022-12-31T19:10:55.647Z,18.15
2022-12-31T19:13:57.324Z,18.02
2022-12-31T19:20:04.313Z,17.98
2022-12-31T19:23:06.446Z,18.20
2022-12-31T19:26:14.043Z,18.15
2022-12-31T19:29:26.843Z,18.29
2022-12-31T19:32:28.750Z,18.15
2022-12-31T19:35:30.518Z,18.24
2022-12-31T19:38:32.609Z,18.14
2022-12-31T19:41:34.497Z,18.24
2022-12-31T19:44:36.244Z,18.02
2022-12-31T19:47:37.889Z,18.02
2022-12-31T19:50:45.846Z,18.06
2022-12-31T19:53:53.546Z,18.10
2022-12-31T19:56:56.355Z,18.03
2022-12-31T19:59:58.017Z,18.06
2022-12-31T20:03:00.040Z,18.08
2022-12-31T20:06:07.586Z,18.21
2022-12-31T20:09:10.807Z,18.08
2022-12-31T20:12:12.440Z,18.01
2022-12-31T20:15:14.123Z,18.01
2022-12-31T20:18:21.004Z,18.05
2022-12-31T20:21:26.152Z,18.07
2022-12-31T20:24:27.916Z,17.89
2022-12-31T20:27:29.789Z,17.84
2022-12-31T20:30:31.510Z,17.98
2022-12-31T20:33:33.807Z,17.84
2022-12-31T20:36:36.656Z,17.93
2022-12-31T20:39:38.319Z,17.85
2022-12-31T20:42:40.940Z,17.98
2022-12-31T20:45:44.138Z,17.73
2022-12-31T20:48:47.692Z,17.78
2022-12-31T20:51:52.183Z,17.76
2022-12-31T20:54:56.744Z,17.82
2022-12-31T20:57:58.619Z,17.90
2022-12-31T21:01:00.583Z,17.80
2022-12-31T21:04:05.480Z,17.81
2022-12-31T21:07:08.012Z,17.73
2022-12-31T21:10:09.722Z,17.77
2022-12-31T21:13:11.574Z,17.69
2022-12-31T21:16:13.287Z,17.63
2022-12-31T21:19:14.891Z,17.45
2022-12-31T21:22:16.784Z,17.47
2022-12-31T21:25:18.592Z,17.31
2022-12-31T21:28:20.371Z,17.29
2022-12-31T21:31:22.061Z,17.51
2022-12-31T21:34:23.723Z,17.47
2022-12-31T21:37:26.582Z,17.34
2022-12-31T21:40:49.014Z,17.50
2022-12-31T21:43:53.787Z,17.53
2022-12-31T21:47:45.673Z,17.61
2022-12-31T21:50:46.264Z,17.60
2022-12-31T21:53:47.961Z,17.54
2022-12-31T21:56:49.748Z,17.47
2022-12-31T22:00:41.931Z,17.23
2022-12-31T22:03:45.327Z,17.21
2022-12-31T22:06:47.412Z,17.25
2022-12-31T22:09:50.195Z,17.17
2022-12-31T22:12:52.120Z,17.16
2022-12-31T22:16:05.342Z,17.11
2022-12-31T22:19:08.143Z,17.12
2022-12-31T22:22:10.749Z,17.04
2022-12-31T22:25:12.393Z,17.16
2022-12-31T22:28:41.232Z,17.13
2022-12-31T22:31:35.614Z,16.85
2022-12-31T22:34:37.402Z,17.14
2022-12-31T22:41:11.920Z,17.14
2022-12-31T22:44:18.559Z,17.07
2022-12-31T22:47:20.272Z,16.99
2022-12-31T22:50:28.819Z,17.07
2022-12-31T22:53:30.549Z,17.05
2022-12-31T22:56:34.721Z,17.02
2022-12-31T22:59:36.512Z,17.00
2022-12-31T23:02:41.765Z,16.98
2022-12-31T23:05:44.888Z,16.89
2022-12-31T23:09:09.965Z,16.67
2022-12-31T23:12:12.045Z,15.93
2022-12-31T23:15:32.435Z,16.13
2022-12-31T23:18:52.934Z,16.08
2022-12-31T23:22:13.491Z,16.06
2022-12-31T23:25:15.233Z,15.95
2022-12-31T23:28:22.856Z,15.84
2022-12-31T23:31:28.827Z,15.64
2022-12-31T23:34:30.856Z,15.57
2022-12-31T23:37:33.307Z,15.41
2022-12-31T23:40:34.986Z,15.66
2022-12-31T23:43:36.588Z,15.79
2022-12-31T23:46:38.807Z,15.77
2022-12-31T23:49:40.576Z,15.43
2022-12-31T23:52:42.700Z,15.67
2022-12-31T23:55:44.531Z,15.74
2022-12-31T23:58:46.830Z,15.86
